Fair Isle, United Kingdom
Current Conditions -  °F | °C
As of 2:20 AM on Sunday 21 Dec 2014 (Local Time) from EGPB Reporting Station
Light Rain Light Rain  
Wind Chill: 36°   Ceiling: Unl
Heat Index: 45°   Visibility: 6mi
Dew Point: 43°   Wind: 22mph
Humidity: 93%   Direction: 210°SSW
Pressure: 29.8"   Gusts: NA
Location:  59.53°N, 1.63°W
Report Text: EGPB 210220Z AUTO 21019KT 9000 -RA FEW007/// SCT016/// 07/06 Q1009
Loading
Personal Weather Stations






























Interactive Weather Map New forecast layout! Learn more

10-Day Weather Forecast

Advertisements
Track Severe Weather on mobile